Nearby METAR Reports

 

KCMA - Camarillo, California, USA
Distance from station: WSW 4mi, 7km
Updated: Mon, 18-Jan-2021 3:55pm PST
Clear
Clear
 Wind from ENE
Wind: ENE 15 mph , 24 km/h, Gust: 26 mph , 43 km/h
Temperature: 84°F , 29°C
Dew Point: 25°F , -4°C
Humidity: 11%
Barometer: 29.74 inHg , 1007.1 hPa
Clouds: Clear
Visibility: 10 miles , 16 km
2021/01/18 23:55 KCMA 182355Z 07013G23KT 10SM CLR 29/M04 A2974 RMK AO2 PK WND 07026/2257 SLP079 T02891044 10300 20267 56011
KNTD - Point Mugu Nas, California, USA
Distance from station: SSW 9mi, 15km
Updated: Mon, 18-Jan-2021 3:52pm PST
Clear
Clear
 Wind from SSW
Wind: SSW 7 mph , 11 km/h
Temperature: 64°F , 18°C
Dew Point: 52°F , 11°C
Humidity: 64%
Barometer: 29.77 inHg , 1008.1 hPa
Clouds: Clear
Visibility: 10 miles , 16 km
2021/01/18 23:52 KNTD 182352Z AUTO 21006KT 10SM CLR 18/11 A2977 RMK AO2 SLP081 T01830106 10289 20183 56010 VISNO N $
 
KOXR - Oxnard, California, USA
Distance from station: WSW 10mi, 16km
Updated: Mon, 18-Jan-2021 3:51pm PST
Clear
Clear
 Wind from varies
Wind: varies 7 mph , 11 km/h
Temperature: 64°F , 18°C
Dew Point: 54°F , 12°C
Humidity: 68%
Barometer: 29.75 inHg , 1007.5 hPa
Clouds: Clear
Visibility: 10 miles , 16 km
2021/01/18 23:51 KOXR 182351Z VRB06KT 10SM CLR 18/12 A2975 RMK AO2 SLP074 T01830122 10283 20183 55005
KVNY - Van Nuys, California, USA
Distance from station: E 31mi, 50km
Updated: Mon, 18-Jan-2021 3:51pm PST
Clear
Clear
 Wind from N
Wind: N 12 mph , 19 km/h
Temperature: 81°F , 27°C
Dew Point: 27°F , -3°C
Humidity: 14%
Barometer: 29.75 inHg , 1007.5 hPa
Clouds: Clear
Visibility: 10 miles , 16 km
2021/01/18 23:51 KVNY 182351Z 01010KT 10SM CLR 27/M03 A2975 RMK AO2 SLP068 T02671033 10283 20194 56010
 
KWHP - La / Whiteman, California, USA
Distance from station: E 35mi, 56km
Updated: Mon, 18-Jan-2021 3:50pm PST
Clear
Clear
 Wind from N
Wind: N 9 mph , 15 km/h, Gust: 21 mph , 33 km/h
Temperature: 77°F , 25°C
Dew Point: 25°F , -4°C
Humidity: 14%
Barometer: 29.80 inHg , 1009.1 hPa
Clouds: Clear
Visibility: 10 miles , 16 km
2021/01/18 23:50 KWHP 182350Z 35008G18KT 10SM SKC 25/M04 A2980
KSMO - Santa Monica, California, USA
Distance from station: ESE 36mi, 58km
Updated: Mon, 18-Jan-2021 3:51pm PST
Clear
Clear
 Wind from SW
Wind: SW 6 mph , 9 km/h
Temperature: 64°F , 18°C
Dew Point: 46°F , 8°C
Humidity: 52%
Barometer: 29.75 inHg , 1007.5 hPa
Clouds: Clear
Visibility: 10 miles , 16 km
2021/01/18 23:51 KSMO 182351Z 23005KT 10SM CLR 18/08 A2975 RMK AO2 SLP074 T01830083 10239 20183 56013 $
 
KBUR - Burbank, California, USA
Distance from station: E 38mi, 61km
Updated: Mon, 18-Jan-2021 3:53pm PST
Clear
Clear
 Wind from calm
Wind: Calm
Temperature: 81°F , 27°C
Dew Point: 23°F , -5°C
Humidity: 12%
Barometer: 29.74 inHg , 1007.1 hPa
Clouds: Clear
Visibility: 10 miles , 16 km
2021/01/18 23:53 KBUR 182353Z 00000KT 10SM CLR 27/M05 A2974 RMK AO2 SLP061 T02671050 10272 20189 56016 $
KSDB - Sandberg, California, USA
Distance from station: NNE 40mi, 64km
Updated: Mon, 18-Jan-2021 3:53pm PST
Clear
Clear
 Wind from ENE
Wind: ENE 16 mph , 26 km/h
Temperature: 63°F , 17°C
Dew Point: 19°F , -7°C
Humidity: 19%
Barometer: 29.94 inHg , 1013.9 hPa
Clouds: Clear
Visibility: 10 miles , 16 km
2021/01/18 23:53 KSDB 182353Z AUTO 06014KT 10SM CLR 17/M07 A2994 RMK AO2 SLP096 T01671072 10172 20139 58004 $
 
KLAX - Los Angeles, California, USA
Distance from station: ESE 42mi, 68km
Updated: Mon, 18-Jan-2021 3:53pm PST
Clear
Clear
 Wind from W
Wind: W 8 mph , 13 km/h
Temperature: 64°F , 18°C
Dew Point: 48°F , 9°C
Humidity: 56%
Barometer: 29.75 inHg , 1007.5 hPa
Clouds: Clear
Visibility: 10 miles , 16 km
2021/01/18 23:53 KLAX 182353Z 26007KT 10SM CLR 18/09 A2975 RMK AO2 SLP074 T01830094 10250 20183 56014
KCQT - Los Angeles, California, USA
Distance from station: ESE 45mi, 73km
Updated: Mon, 18-Jan-2021 3:52pm PST
Clear
Clear
 Wind from calm
Wind: Calm
Temperature: 77°F , 25°C
Dew Point: 36°F , 2°C
Humidity: 22%
Barometer: 29.73 inHg , 1006.8 hPa
Clouds: Clear
Visibility: 10 miles , 16 km
2021/01/18 23:52 KCQT 182352Z AUTO 00000KT 10SM CLR 25/02 A2973 RMK AO2 SLP064 T02500022 10261 20206 56017
 
KHHR - Hawthorne, California, USA
Distance from station: ESE 45mi, 73km
Updated: Mon, 18-Jan-2021 3:53pm PST
Clear
Clear
 Wind from WSW
Wind: WSW 7 mph , 11 km/h
Temperature: 72°F , 22°C
Dew Point: 45°F , 7°C
Humidity: 38%
Barometer: 29.75 inHg , 1007.5 hPa
Clouds: Clear
Visibility: 10 miles , 16 km
2021/01/18 23:53 KHHR 182353Z AUTO 25006KT 10SM CLR 22/07 A2975 RMK AO2 SLP072 T02170072 10250 20183 56013 $
KSBA - Santa Barbara, California, USA
Distance from station: WNW 49mi, 79km
Updated: Mon, 18-Jan-2021 3:53pm PST
Clear
Clear
 Wind from WSW
Wind: WSW 5 mph , 7 km/h
Temperature: 75°F , 24°C
Dew Point: 34°F , 1°C
Humidity: 22%
Barometer: 29.76 inHg , 1007.8 hPa
Clouds: Clear
Visibility: 10 miles , 16 km
2021/01/18 23:53 KSBA 182353Z 25004KT 10SM CLR 24/01 A2976 RMK AO2 SLP078 T02390011 10239 20200 56007